< < Back
Terminal Aerodrome Forecast


Current Version              Previous Versions:   1  2  3  4  5  6  7  8  9  

Terminal Aerodrome Forecast

854
FTUS42 KFFC 272155 AAB
TAFATL
TAF AMD
KATL 272155Z 2722/2824 34010KT P6SM FEW250
     FM280300 03007KT P6SM SCT025
     FM280900 06010KT P6SM OVC015
     FM281500 09012G18KT P6SM OVC020
     FM281800 08011G16KT P6SM SCT025 BKN070=



Latest METAR

548
SAUS70 KWBC 280200 RRC
MTRATL
METAR KATL 280152Z 34009KT 10SM FEW250 03/M06 A3040 RMK AO2 SLP304
T00281061


USA.gov is the U.S. government's official web portal to all federal, state and local government web resources and services.